KSNK/SNK METAR and TAF weather

Enter ICAO airport designator
Station Type Date Time Source
KSNK METAR 2018/12/11 18:35 UTC NOAA

KSNK 111835Z AUTO 20015G21KT 10SM CLR 11/05 A3016 RMK AO2 T01120054


Station Type Date Time Source
KSNK Decoded METAR 2018/12/11 18:35 UTC NOAA

Snyder, Winston Field Airport, TX, United States (KSNK) 32-41-36N 100-57-01W
Dec 11, 2018 - 01:35 PM EST / 2018.12.11 1835 UTC
Wind: from the SSW (200 degrees) at 17 MPH (15 KT) gusting to 24 MPH (21 KT):0
Visibility: 10 mile(s):0
Sky conditions: clear
Temperature: 52.2 F (11.2 C)
Dew Point: 41.7 F (5.4 C)
Relative Humidity: 67%
Pressure (altimeter): 30.16 in. Hg (1021 hPa)
ob: KSNK 111835Z AUTO 20015G21KT 10SM CLR 11/05 A3016 RMK AO2 T01120054
cycle: 18

Station Type Date Time Source
KSNK TAF UTC NOAA

Error!


Example: see airport list